createdAt,value
2018-01-18T00:00:48.762Z,2.30
2018-01-18T00:01:48.720Z,2.10
2018-01-18T00:02:27.709Z,2.50
2018-01-18T00:03:27.710Z,1.90
2018-01-18T00:04:27.689Z,1.70
2018-01-18T00:05:48.753Z,2.10
2018-01-18T00:06:48.664Z,1.90
2018-01-18T00:07:27.656Z,2.20
2018-01-18T00:08:27.641Z,2.10
2018-01-18T00:09:27.631Z,2.40
2018-01-18T00:10:48.622Z,2.10
2018-01-18T00:11:48.603Z,2.00
2018-01-18T00:12:27.603Z,1.90
2018-01-18T00:13:27.582Z,2.20
2018-01-18T00:14:27.560Z,1.90
2018-01-18T00:15:48.562Z,2.40
2018-01-18T00:16:48.561Z,2.10
2018-01-18T00:17:27.536Z,2.50
2018-01-18T00:18:27.524Z,2.10
2018-01-18T00:19:27.510Z,2.50
2018-01-18T00:20:48.505Z,1.90
2018-01-18T00:21:48.491Z,2.30
2018-01-18T00:22:27.493Z,1.90
2018-01-18T00:23:27.470Z,2.50
2018-01-18T00:24:27.463Z,2.40
2018-01-18T00:25:48.490Z,2.00
2018-01-18T00:26:48.438Z,2.10
2018-01-18T00:27:27.431Z,1.90
2018-01-18T00:28:27.407Z,2.10
2018-01-18T00:29:27.436Z,2.20
2018-01-18T00:30:48.390Z,2.00
2018-01-18T00:31:48.392Z,1.90
2018-01-18T00:32:27.449Z,2.20
2018-01-18T00:33:27.368Z,1.80
2018-01-18T00:34:27.370Z,1.80
2018-01-18T00:35:48.372Z,2.10
2018-01-18T00:36:48.324Z,1.80
2018-01-18T00:37:27.338Z,1.70
2018-01-18T00:38:27.325Z,2.00
2018-01-18T00:39:27.282Z,1.80
2018-01-18T00:40:48.278Z,1.70
2018-01-18T00:41:48.268Z,1.60
2018-01-18T00:42:27.290Z,1.70
2018-01-18T00:43:27.242Z,2.00
2018-01-18T00:44:27.233Z,2.10
2018-01-18T00:45:48.218Z,1.60
2018-01-18T00:46:48.260Z,1.60
2018-01-18T00:47:27.215Z,2.00
2018-01-18T00:48:27.179Z,2.00
2018-01-18T00:49:27.171Z,1.70
2018-01-18T00:50:48.170Z,1.80
2018-01-18T00:51:48.157Z,1.90
2018-01-18T00:52:27.202Z,1.70
2018-01-18T00:53:27.121Z,1.80
2018-01-18T00:54:27.168Z,1.50
2018-01-18T00:55:48.108Z,1.50
2018-01-18T00:56:48.085Z,1.70
2018-01-18T00:57:27.087Z,1.50
2018-01-18T00:58:27.118Z,1.70
2018-01-18T00:59:27.057Z,1.80
2018-01-18T01:00:48.046Z,1.70
2018-01-18T01:01:48.033Z,1.50
2018-01-18T01:02:27.038Z,1.80
2018-01-18T01:03:27.016Z,1.60
2018-01-18T01:04:27.014Z,1.60
2018-01-18T01:05:47.988Z,1.60
2018-01-18T01:06:47.978Z,1.70
2018-01-18T01:07:26.976Z,1.80
2018-01-18T01:08:27.000Z,1.60
2018-01-18T01:09:26.965Z,1.60
2018-01-18T01:10:47.940Z,1.40
2018-01-18T01:11:47.921Z,1.40
2018-01-18T01:12:26.906Z,1.40
2018-01-18T01:13:26.907Z,1.80
2018-01-18T01:14:26.914Z,1.50
2018-01-18T01:15:47.898Z,1.50
2018-01-18T01:16:47.969Z,1.60
2018-01-18T01:17:26.853Z,1.70
2018-01-18T01:18:26.837Z,1.60
2018-01-18T01:19:26.854Z,1.70
2018-01-18T01:20:47.817Z,1.80
2018-01-18T01:21:47.808Z,1.60
2018-01-18T01:22:26.787Z,1.30
2018-01-18T01:23:26.775Z,1.70
2018-01-18T01:24:26.776Z,1.50
2018-01-18T01:25:47.754Z,1.70
2018-01-18T01:26:47.766Z,1.80
2018-01-18T01:27:26.790Z,1.90
2018-01-18T01:28:26.762Z,1.80
2018-01-18T01:29:26.736Z,1.90
2018-01-18T01:30:47.706Z,1.80
2018-01-18T01:31:47.723Z,1.90
2018-01-18T01:32:26.710Z,1.70
2018-01-18T01:33:26.670Z,1.90
2018-01-18T01:34:26.664Z,2.10
2018-01-18T01:35:47.649Z,1.60
2018-01-18T01:36:47.639Z,1.70
2018-01-18T01:37:26.627Z,1.90
2018-01-18T01:38:26.614Z,1.80
2018-01-18T01:39:26.597Z,1.60
2018-01-18T01:40:47.600Z,1.90
2018-01-18T01:41:47.586Z,1.60
2018-01-18T01:42:26.565Z,1.70
2018-01-18T01:43:26.580Z,1.90
2018-01-18T01:44:26.553Z,2.00
2018-01-18T01:45:47.535Z,1.70
2018-01-18T01:46:47.606Z,2.00
2018-01-18T01:47:26.537Z,1.90
2018-01-18T01:48:26.491Z,2.30
2018-01-18T01:49:26.485Z,2.00
2018-01-18T01:50:47.679Z,2.10
2018-01-18T01:51:47.606Z,2.10
2018-01-18T01:52:26.455Z,2.20
2018-01-18T01:53:26.459Z,1.70
2018-01-18T01:54:26.419Z,2.10
2018-01-18T01:55:47.417Z,2.00
2018-01-18T01:56:47.406Z,2.10
2018-01-18T01:57:26.392Z,2.20
2018-01-18T01:58:26.422Z,1.80
2018-01-18T01:59:26.369Z,2.00
2018-01-18T02:00:47.479Z,1.80
2018-01-18T02:01:47.478Z,2.00
2018-01-18T02:02:26.341Z,2.00
2018-01-18T02:03:26.342Z,2.00
2018-01-18T02:04:26.326Z,2.20
2018-01-18T02:05:47.305Z,2.10
2018-01-18T02:06:47.301Z,2.10
2018-01-18T02:07:26.281Z,2.20
2018-01-18T02:08:26.260Z,1.80
2018-01-18T02:09:26.263Z,2.30
2018-01-18T02:10:47.309Z,2.10
2018-01-18T02:11:47.239Z,2.30
2018-01-18T02:12:26.224Z,1.90
2018-01-18T02:13:26.209Z,1.80
2018-01-18T02:14:26.208Z,2.00
2018-01-18T02:15:47.199Z,2.10
2018-01-18T02:16:47.267Z,1.70
2018-01-18T02:17:26.172Z,2.10
2018-01-18T02:18:26.149Z,2.20
2018-01-18T02:19:26.140Z,2.10
2018-01-18T02:20:47.135Z,1.70
2018-01-18T02:21:47.123Z,1.70
2018-01-18T02:22:26.136Z,2.10
2018-01-18T02:23:26.091Z,2.00
2018-01-18T02:24:26.083Z,2.00
2018-01-18T02:25:47.075Z,1.80
2018-01-18T02:26:47.067Z,2.20
2018-01-18T02:27:26.051Z,1.90
2018-01-18T02:28:26.037Z,2.10
2018-01-18T02:29:26.027Z,2.00
2018-01-18T02:30:47.054Z,2.10
2018-01-18T02:31:47.022Z,1.90
2018-01-18T02:32:26.007Z,2.00
2018-01-18T02:33:25.980Z,1.90
2018-01-18T02:34:25.975Z,1.70
2018-01-18T02:35:46.977Z,2.20
2018-01-18T02:36:46.961Z,2.20
2018-01-18T02:37:26.036Z,2.10
2018-01-18T02:38:25.922Z,2.20
2018-01-18T02:39:25.924Z,1.90
2018-01-18T02:40:46.906Z,2.60
2018-01-18T02:41:46.913Z,2.50
2018-01-18T02:42:25.875Z,2.20
2018-01-18T02:43:25.876Z,2.40
2018-01-18T02:44:25.852Z,2.20
2018-01-18T02:45:46.838Z,1.80
2018-01-18T02:46:46.832Z,1.80
2018-01-18T02:47:25.878Z,2.10
2018-01-18T02:48:25.807Z,2.10
2018-01-18T02:49:25.806Z,1.90
2018-01-18T02:50:46.784Z,1.80
2018-01-18T02:51:46.775Z,2.00
2018-01-18T02:52:25.764Z,2.10
2018-01-18T02:53:25.745Z,2.00
2018-01-18T02:54:25.757Z,1.90
2018-01-18T02:55:46.733Z,2.10
2018-01-18T02:56:46.720Z,2.10
2018-01-18T02:57:25.762Z,1.90
2018-01-18T02:58:25.704Z,2.10
2018-01-18T02:59:25.692Z,1.80
2018-01-18T03:00:46.691Z,1.80
2018-01-18T03:01:46.662Z,1.60
2018-01-18T03:02:25.646Z,1.90
2018-01-18T03:03:25.626Z,1.50
2018-01-18T03:04:25.616Z,2.00
2018-01-18T03:05:46.611Z,2.20
2018-01-18T03:06:46.598Z,1.90
2018-01-18T03:07:25.584Z,1.90
2018-01-18T03:08:25.571Z,1.80
2018-01-18T03:09:25.573Z,2.00
2018-01-18T03:10:46.561Z,2.10
2018-01-18T03:11:46.543Z,1.80
2018-01-18T03:12:25.536Z,1.80
2018-01-18T03:13:25.518Z,2.20
2018-01-18T03:14:25.503Z,1.90
2018-01-18T03:15:46.503Z,1.80
2018-01-18T03:16:46.530Z,1.80
2018-01-18T03:17:25.580Z,2.00
2018-01-18T03:18:25.475Z,1.90
2018-01-18T03:19:25.456Z,1.60
2018-01-18T03:20:46.576Z,2.10
2018-01-18T03:21:46.464Z,2.00
2018-01-18T03:22:25.426Z,2.00
2018-01-18T03:23:25.400Z,2.00
2018-01-18T03:24:25.387Z,1.80
2018-01-18T03:25:46.386Z,1.80
2018-01-18T03:26:46.361Z,2.00
2018-01-18T03:27:25.365Z,1.90
2018-01-18T03:28:25.372Z,2.30
2018-01-18T03:29:25.368Z,2.10
2018-01-18T03:30:46.336Z,2.10
2018-01-18T03:31:46.301Z,1.80
2018-01-18T03:32:25.293Z,1.90
2018-01-18T03:33:25.283Z,2.10
2018-01-18T03:34:25.278Z,2.20
2018-01-18T03:35:46.260Z,2.10
2018-01-18T03:36:46.250Z,2.50
2018-01-18T03:37:25.232Z,2.30
2018-01-18T03:38:25.220Z,2.00
2018-01-18T03:39:25.229Z,2.00
2018-01-18T03:40:46.208Z,2.10
2018-01-18T03:41:46.200Z,1.60
2018-01-18T03:42:25.196Z,1.80
2018-01-18T03:43:25.171Z,1.90
2018-01-18T03:44:25.162Z,2.00
2018-01-18T03:45:46.147Z,2.00
2018-01-18T03:46:46.135Z,1.80
2018-01-18T03:47:25.204Z,1.80
2018-01-18T03:48:25.111Z,2.10
2018-01-18T03:49:25.126Z,1.90
2018-01-18T03:50:46.096Z,2.10
2018-01-18T03:51:46.141Z,1.70
2018-01-18T03:52:25.061Z,2.10
2018-01-18T03:53:25.058Z,1.90
2018-01-18T03:54:25.049Z,1.90
2018-01-18T03:55:46.030Z,2.10
2018-01-18T03:56:46.024Z,1.80
2018-01-18T03:57:25.006Z,2.10
2018-01-18T03:58:24.995Z,2.00
2018-01-18T03:59:24.987Z,1.80
2018-01-18T04:00:45.975Z,1.80
2018-01-18T04:01:45.957Z,2.00
2018-01-18T04:02:24.942Z,1.70
2018-01-18T04:03:24.928Z,2.10
2018-01-18T04:04:24.933Z,2.20
2018-01-18T04:05:45.919Z,2.20
2018-01-18T04:06:46.882Z,1.90
2018-01-18T04:07:24.891Z,2.00
2018-01-18T04:08:24.873Z,2.20
2018-01-18T04:09:24.892Z,2.00
2018-01-18T04:10:45.880Z,1.90
2018-01-18T04:11:45.842Z,2.10
2018-01-18T04:12:24.853Z,2.00
2018-01-18T04:13:24.819Z,2.00
2018-01-18T04:14:24.797Z,2.20
2018-01-18T04:15:45.791Z,2.10
2018-01-18T04:16:45.792Z,1.80
2018-01-18T04:17:24.768Z,2.20
2018-01-18T04:18:24.757Z,2.10
2018-01-18T04:19:24.766Z,1.90
2018-01-18T04:20:45.747Z,1.70
2018-01-18T04:21:45.722Z,2.30
2018-01-18T04:22:24.707Z,2.20
2018-01-18T04:23:27.582Z,1.80
2018-01-18T04:24:24.699Z,1.70
2018-01-18T04:25:45.681Z,1.60
2018-01-18T04:26:45.685Z,2.00
2018-01-18T04:27:24.646Z,1.90
2018-01-18T04:28:24.641Z,1.50
2018-01-18T04:29:25.304Z,2.10
2018-01-18T04:30:45.623Z,1.80
2018-01-18T04:31:45.612Z,1.80
2018-01-18T04:32:24.592Z,2.10
2018-01-18T04:33:24.633Z,2.10
2018-01-18T04:34:24.583Z,2.00
2018-01-18T04:35:45.560Z,2.10
2018-01-18T04:36:45.557Z,1.90
2018-01-18T04:37:24.534Z,2.00
2018-01-18T04:38:24.522Z,2.10
2018-01-18T04:39:24.517Z,1.60
2018-01-18T04:40:45.570Z,1.60
2018-01-18T04:41:45.517Z,1.80
2018-01-18T04:42:24.607Z,1.90
2018-01-18T04:43:24.460Z,1.70
2018-01-18T04:44:24.512Z,1.60
2018-01-18T04:45:45.452Z,1.50
2018-01-18T04:46:45.486Z,2.00
2018-01-18T04:47:24.418Z,1.60
2018-01-18T04:48:24.404Z,1.80
2018-01-18T04:49:24.415Z,1.70
2018-01-18T04:50:45.393Z,1.60
2018-01-18T04:51:45.437Z,1.90
2018-01-18T04:52:24.363Z,1.50
2018-01-18T04:53:24.354Z,1.50
2018-01-18T04:54:24.427Z,1.60
2018-01-18T04:55:45.337Z,1.70
2018-01-18T04:56:45.331Z,1.50
2018-01-18T04:57:24.317Z,1.70
2018-01-18T04:58:24.433Z,1.80
2018-01-18T04:59:24.284Z,1.40
2018-01-18T05:00:45.284Z,1.30
2018-01-18T05:01:46.793Z,2.10
2018-01-18T05:02:24.256Z,1.50
2018-01-18T05:03:24.239Z,1.60
2018-01-18T05:04:24.258Z,1.40
2018-01-18T05:05:45.223Z,2.10
2018-01-18T05:06:45.219Z,1.40
2018-01-18T05:07:24.199Z,1.60
2018-01-18T05:08:24.562Z,1.60
2018-01-18T05:09:24.172Z,1.60
2018-01-18T05:10:45.155Z,1.60
2018-01-18T05:11:45.154Z,1.40
2018-01-18T05:12:24.130Z,1.40
2018-01-18T05:13:24.145Z,1.20
2018-01-18T05:14:24.119Z,1.50
2018-01-18T05:15:45.110Z,1.30
2018-01-18T05:16:45.102Z,1.40
2018-01-18T05:17:24.074Z,1.50
2018-01-18T05:18:24.100Z,1.20
2018-01-18T05:19:24.052Z,1.30
2018-01-18T05:20:45.069Z,1.30
2018-01-18T05:21:45.040Z,1.40
2018-01-18T05:22:24.629Z,1.20
2018-01-18T05:23:24.012Z,1.20
2018-01-18T05:24:23.997Z,1.10
2018-01-18T05:25:44.985Z,1.40
2018-01-18T05:26:44.980Z,1.30
2018-01-18T05:27:24.033Z,1.20
2018-01-18T05:28:23.949Z,1.20
2018-01-18T05:29:23.990Z,1.30
2018-01-18T05:30:53.039Z,1.40
2018-01-18T05:31:44.924Z,1.50
2018-01-18T05:32:23.902Z,1.30
2018-01-18T05:33:23.928Z,1.50
2018-01-18T05:34:23.910Z,1.50
2018-01-18T05:35:44.872Z,1.30
2018-01-18T05:36:44.878Z,1.30
2018-01-18T05:37:23.921Z,1.20
2018-01-18T05:38:23.846Z,1.30
2018-01-18T05:39:23.824Z,1.30
2018-01-18T05:40:44.816Z,1.20
2018-01-18T05:41:44.812Z,1.30
2018-01-18T05:42:23.789Z,1.40
2018-01-18T05:43:23.776Z,1.40
2018-01-18T05:44:23.773Z,1.60
2018-01-18T05:45:44.758Z,1.40
2018-01-18T05:46:44.778Z,1.10
2018-01-18T05:47:23.752Z,1.20
2018-01-18T05:48:23.732Z,1.50
2018-01-18T05:49:23.709Z,1.30
2018-01-18T05:50:44.726Z,1.50
2018-01-18T05:51:44.704Z,1.40
2018-01-18T05:52:23.712Z,1.20
2018-01-18T05:53:23.666Z,1.30
2018-01-18T05:54:23.655Z,1.30
2018-01-18T05:55:44.644Z,1.10
2018-01-18T05:56:44.634Z,1.20
2018-01-18T05:57:23.623Z,1.00
2018-01-18T05:58:23.610Z,1.30
2018-01-18T05:59:23.609Z,1.10
2018-01-18T06:00:44.624Z,1.20
2018-01-18T06:01:44.596Z,1.10
2018-01-18T06:02:23.587Z,1.00
2018-01-18T06:03:23.552Z,1.10
2018-01-18T06:04:23.537Z,0.90
2018-01-18T06:05:44.532Z,1.30
2018-01-18T06:06:44.530Z,1.20
2018-01-18T06:07:23.534Z,1.30
2018-01-18T06:08:23.494Z,1.00
2018-01-18T06:09:23.486Z,1.20
2018-01-18T06:10:44.491Z,1.30
2018-01-18T06:11:44.457Z,1.10
2018-01-18T06:12:23.436Z,1.30
2018-01-18T06:13:23.496Z,1.10
2018-01-18T06:14:23.422Z,1.00
2018-01-18T06:15:44.412Z,1.10
2018-01-18T06:16:44.416Z,1.00
2018-01-18T06:17:23.394Z,1.10
2018-01-18T06:18:23.386Z,1.20
2018-01-18T06:19:23.363Z,0.90
2018-01-18T06:20:44.358Z,0.90
2018-01-18T06:21:44.369Z,1.20
2018-01-18T06:22:23.332Z,0.90
2018-01-18T06:23:23.328Z,1.40
2018-01-18T06:24:23.307Z,0.90
2018-01-18T06:25:44.321Z,0.90
2018-01-18T06:26:44.297Z,1.30
2018-01-18T06:27:23.271Z,1.40
2018-01-18T06:28:23.258Z,1.00
2018-01-18T06:29:23.252Z,1.20
2018-01-18T06:30:44.280Z,0.80
2018-01-18T06:31:44.225Z,1.10
2018-01-18T06:32:23.220Z,1.00
2018-01-18T06:33:23.222Z,1.10
2018-01-18T06:34:23.218Z,1.00
2018-01-18T06:35:44.193Z,1.00
2018-01-18T06:36:44.183Z,0.90
2018-01-18T06:37:23.256Z,0.90
2018-01-18T06:38:23.153Z,1.00
2018-01-18T06:39:23.136Z,1.30
2018-01-18T06:40:44.135Z,1.00
2018-01-18T06:41:44.132Z,0.80
2018-01-18T06:42:23.099Z,0.90
2018-01-18T06:43:23.095Z,1.00
2018-01-18T06:44:23.082Z,1.10
2018-01-18T06:45:44.107Z,1.00
2018-01-18T06:46:44.064Z,1.30
2018-01-18T06:47:23.036Z,1.40
2018-01-18T06:48:23.088Z,1.30
2018-01-18T06:49:23.027Z,1.70
2018-01-18T06:50:44.029Z,1.50
2018-01-18T06:51:44.016Z,1.70
2018-01-18T06:52:22.992Z,1.40
2018-01-18T06:53:23.005Z,1.30
2018-01-18T06:54:23.011Z,1.20
2018-01-18T06:55:43.990Z,1.20
2018-01-18T06:56:43.947Z,1.20
2018-01-18T06:57:22.929Z,0.90
2018-01-18T06:58:22.925Z,0.80
2018-01-18T06:59:22.908Z,0.70
2018-01-18T07:00:43.893Z,0.80
2018-01-18T07:01:43.894Z,1.10
2018-01-18T07:02:22.873Z,0.90
2018-01-18T07:03:22.871Z,0.80
2018-01-18T07:04:22.851Z,0.80
2018-01-18T07:05:43.891Z,0.70
2018-01-18T07:06:43.848Z,1.00
2018-01-18T07:07:22.838Z,0.70
2018-01-18T07:08:22.800Z,1.10
2018-01-18T07:09:22.795Z,0.90
2018-01-18T07:10:43.795Z,0.80
2018-01-18T07:11:43.775Z,0.80
2018-01-18T07:12:22.757Z,1.00
2018-01-18T07:13:22.741Z,0.90
2018-01-18T07:14:22.750Z,0.70
2018-01-18T07:15:43.724Z,0.70
2018-01-18T07:16:43.711Z,1.20
2018-01-18T07:17:22.704Z,0.80
2018-01-18T07:18:22.685Z,0.50
2018-01-18T07:19:22.675Z,0.60
2018-01-18T07:20:43.670Z,0.80
2018-01-18T07:21:43.672Z,0.90
2018-01-18T07:22:22.647Z,1.00
2018-01-18T07:23:22.631Z,0.80
2018-01-18T07:24:22.620Z,0.80
2018-01-18T07:25:43.629Z,0.70
2018-01-18T07:26:43.595Z,0.90
2018-01-18T07:27:22.583Z,0.90
2018-01-18T07:28:22.573Z,0.80
2018-01-18T07:29:22.586Z,0.80
2018-01-18T07:30:43.556Z,0.90
2018-01-18T07:31:43.544Z,0.70
2018-01-18T07:32:22.558Z,0.80
2018-01-18T07:33:22.516Z,0.90
2018-01-18T07:34:22.530Z,0.70
2018-01-18T07:35:43.500Z,1.10
2018-01-18T07:36:43.563Z,0.90
2018-01-18T07:37:22.483Z,0.80
2018-01-18T07:38:22.460Z,0.80
2018-01-18T07:39:22.556Z,0.70
2018-01-18T07:40:43.492Z,0.80
2018-01-18T07:41:43.487Z,0.80
2018-01-18T07:42:22.552Z,0.50
2018-01-18T07:43:22.421Z,0.80
2018-01-18T07:44:22.438Z,0.70
2018-01-18T07:45:43.398Z,0.70
2018-01-18T07:46:43.429Z,0.60
2018-01-18T07:47:22.362Z,0.70
2018-01-18T07:48:22.363Z,0.80
2018-01-18T07:49:22.323Z,0.80
2018-01-18T07:50:43.327Z,0.90
2018-01-18T07:51:43.316Z,0.60
2018-01-18T07:52:22.296Z,0.60
2018-01-18T07:53:22.284Z,0.70
2018-01-18T07:54:22.273Z,1.00
2018-01-18T07:55:43.273Z,0.70
2018-01-18T07:56:43.260Z,0.70
2018-01-18T07:57:22.242Z,0.70
2018-01-18T07:58:22.274Z,0.90
2018-01-18T07:59:22.214Z,0.60
2018-01-18T08:00:43.228Z,0.80
2018-01-18T08:01:43.195Z,0.60
2018-01-18T08:02:22.201Z,0.60
2018-01-18T08:03:22.173Z,0.70
2018-01-18T08:04:22.227Z,0.70
2018-01-18T08:05:43.208Z,0.80
2018-01-18T08:06:43.145Z,0.80
2018-01-18T08:07:22.206Z,1.00
2018-01-18T08:08:22.135Z,1.10
2018-01-18T08:09:22.108Z,0.70
2018-01-18T08:10:43.101Z,0.80
2018-01-18T08:11:43.112Z,0.90
2018-01-18T08:12:22.074Z,0.90
2018-01-18T08:13:22.066Z,0.70
2018-01-18T08:14:22.140Z,0.90
2018-01-18T08:15:43.067Z,0.60
2018-01-18T08:16:43.042Z,0.60
2018-01-18T08:17:22.038Z,0.60
2018-01-18T08:18:22.047Z,0.80
2018-01-18T08:19:22.022Z,0.70
2018-01-18T08:20:43.028Z,0.70
2018-01-18T08:21:43.005Z,0.80
2018-01-18T08:22:21.989Z,0.80
2018-01-18T08:23:21.952Z,0.90
2018-01-18T08:24:21.943Z,0.60
2018-01-18T08:25:42.938Z,0.60
2018-01-18T08:26:42.914Z,0.60
2018-01-18T08:27:21.946Z,0.90
2018-01-18T08:28:21.898Z,0.80
2018-01-18T08:29:21.907Z,1.00
2018-01-18T08:30:42.889Z,0.70
2018-01-18T08:31:42.862Z,1.00
2018-01-18T08:32:21.850Z,0.60
2018-01-18T08:33:21.847Z,0.90
2018-01-18T08:34:21.828Z,1.00
2018-01-18T08:35:42.855Z,1.00
2018-01-18T08:36:42.819Z,1.00
2018-01-18T08:37:21.799Z,1.00
2018-01-18T08:38:21.776Z,1.10
2018-01-18T08:39:21.777Z,0.90
2018-01-18T08:40:42.773Z,0.90
2018-01-18T08:41:42.766Z,0.90
2018-01-18T08:42:21.752Z,0.90
2018-01-18T08:43:21.775Z,0.80
2018-01-18T08:44:21.717Z,1.10
2018-01-18T08:45:42.715Z,0.70
2018-01-18T08:46:42.712Z,0.90
2018-01-18T08:47:21.694Z,0.90
2018-01-18T08:48:21.680Z,0.70
2018-01-18T08:49:21.673Z,0.80
2018-01-18T08:50:42.671Z,0.90
2018-01-18T08:51:42.658Z,0.80
2018-01-18T08:52:21.642Z,0.70
2018-01-18T08:53:21.660Z,0.60
2018-01-18T08:54:21.616Z,0.50
2018-01-18T08:55:42.616Z,0.80
2018-01-18T08:56:42.642Z,0.70
2018-01-18T08:57:21.595Z,0.70
2018-01-18T08:58:21.572Z,0.50
2018-01-18T08:59:21.564Z,0.90
2018-01-18T09:00:42.562Z,0.70
2018-01-18T09:01:42.550Z,0.50
2018-01-18T09:02:21.543Z,0.50
2018-01-18T09:03:21.520Z,0.60
2018-01-18T09:04:21.506Z,0.60
2018-01-18T09:05:42.535Z,0.60
2018-01-18T09:06:42.504Z,0.40
2018-01-18T09:07:21.479Z,0.60
2018-01-18T09:08:21.482Z,0.70
2018-01-18T09:09:21.467Z,0.60
2018-01-18T09:10:42.456Z,0.50
2018-01-18T09:11:42.445Z,0.70
2018-01-18T09:12:21.437Z,0.70
2018-01-18T09:13:21.415Z,0.60
2018-01-18T09:14:21.408Z,0.70
2018-01-18T09:15:42.409Z,0.80
2018-01-18T09:16:42.416Z,0.60
2018-01-18T09:17:21.392Z,0.70
2018-01-18T09:18:21.375Z,0.50
2018-01-18T09:19:21.377Z,0.50
2018-01-18T09:20:42.362Z,0.60
2018-01-18T09:21:42.358Z,0.50
2018-01-18T09:22:21.328Z,0.50
2018-01-18T09:23:21.340Z,0.40
2018-01-18T09:24:21.317Z,0.50
2018-01-18T09:25:42.306Z,0.40
2018-01-18T09:26:42.293Z,0.60
2018-01-18T09:27:21.283Z,0.50
2018-01-18T09:28:21.268Z,0.40
2018-01-18T09:29:21.245Z,0.40
2018-01-18T09:30:42.244Z,0.40
2018-01-18T09:31:42.239Z,0.60
2018-01-18T09:32:21.243Z,0.40
2018-01-18T09:33:21.222Z,0.50
2018-01-18T09:34:21.207Z,0.40
2018-01-18T09:35:42.205Z,0.40
2018-01-18T09:36:42.198Z,0.40
2018-01-18T09:37:21.179Z,0.50
2018-01-18T09:38:21.164Z,0.40
2018-01-18T09:39:21.161Z,0.50
2018-01-18T09:40:42.149Z,0.50
2018-01-18T09:41:42.138Z,0.50
2018-01-18T09:42:21.120Z,0.40
2018-01-18T09:43:23.116Z,0.50
2018-01-18T09:44:21.102Z,0.40
2018-01-18T09:45:42.100Z,0.60
2018-01-18T09:46:42.087Z,0.50
2018-01-18T09:47:21.089Z,0.40
2018-01-18T09:48:21.089Z,0.40
2018-01-18T09:49:21.052Z,0.30
2018-01-18T09:50:42.073Z,0.40
2018-01-18T09:51:42.034Z,0.30
2018-01-18T09:52:21.029Z,0.40
2018-01-18T09:53:21.045Z,0.30
2018-01-18T09:54:21.025Z,0.20
2018-01-18T09:55:42.002Z,0.30
2018-01-18T09:56:41.997Z,0.30
2018-01-18T09:57:20.971Z,0.20
2018-01-18T09:58:20.974Z,0.30
2018-01-18T09:59:20.951Z,0.20
2018-01-18T10:00:42.004Z,0.20
2018-01-18T10:01:41.942Z,0.40
2018-01-18T10:02:21.047Z,0.20
2018-01-18T10:03:20.908Z,0.30
2018-01-18T10:04:20.909Z,0.40
2018-01-18T10:05:41.922Z,0.30
2018-01-18T10:06:41.896Z,0.30
2018-01-18T10:07:20.877Z,0.20
2018-01-18T10:08:20.873Z,0.20
2018-01-18T10:09:20.852Z,0.20
2018-01-18T10:10:43.018Z,0.30
2018-01-18T10:11:41.870Z,0.30
2018-01-18T10:12:20.823Z,0.30
2018-01-18T10:13:20.814Z,0.30
2018-01-18T10:14:20.802Z,0.40
2018-01-18T10:15:41.798Z,0.40
2018-01-18T10:16:41.788Z,0.20
2018-01-18T10:17:20.784Z,0.20
2018-01-18T10:18:20.766Z,0.30
2018-01-18T10:19:20.758Z,0.30
2018-01-18T10:20:41.803Z,0.30
2018-01-18T10:21:41.751Z,0.30
2018-01-18T10:22:20.735Z,0.30
2018-01-18T10:23:20.739Z,0.40
2018-01-18T10:24:20.713Z,0.40
2018-01-18T10:25:41.701Z,0.30
2018-01-18T10:26:41.712Z,0.40
2018-01-18T10:27:20.696Z,0.30
2018-01-18T10:28:20.674Z,0.40
2018-01-18T10:29:20.660Z,0.40
2018-01-18T10:30:41.683Z,0.40
2018-01-18T10:31:41.645Z,0.50
2018-01-18T10:32:20.650Z,0.50
2018-01-18T10:33:20.645Z,0.30
2018-01-18T10:34:20.617Z,0.40
2018-01-18T10:35:41.616Z,0.40
2018-01-18T10:36:41.645Z,0.50
2018-01-18T10:37:20.597Z,0.40
2018-01-18T10:38:20.571Z,0.50
2018-01-18T10:39:21.555Z,0.30
2018-01-18T10:40:41.571Z,0.40
2018-01-18T10:41:41.554Z,0.30
2018-01-18T10:42:20.543Z,0.40
2018-01-18T10:43:20.525Z,0.50
2018-01-18T10:44:20.512Z,0.30
2018-01-18T10:45:41.519Z,0.40
2018-01-18T10:46:41.518Z,0.40
2018-01-18T10:47:20.498Z,0.30
2018-01-18T10:48:20.490Z,0.40
2018-01-18T10:49:20.475Z,0.40
2018-01-18T10:50:41.505Z,0.50
2018-01-18T10:51:41.460Z,0.50
2018-01-18T10:52:20.454Z,0.30
2018-01-18T10:53:20.436Z,0.50
2018-01-18T10:54:20.426Z,0.40
2018-01-18T10:55:41.431Z,0.30
2018-01-18T10:56:41.430Z,0.30
2018-01-18T10:57:20.396Z,0.50
2018-01-18T10:58:20.397Z,0.40
2018-01-18T10:59:20.400Z,0.40
2018-01-18T11:00:41.385Z,0.50
2018-01-18T11:01:41.372Z,0.30
2018-01-18T11:02:20.357Z,0.40
2018-01-18T11:03:20.342Z,0.40
2018-01-18T11:04:20.338Z,0.40
2018-01-18T11:05:41.341Z,0.50
2018-01-18T11:06:41.325Z,0.30
2018-01-18T11:07:20.312Z,0.40
2018-01-18T11:08:20.307Z,0.60
2018-01-18T11:09:20.289Z,0.40
2018-01-18T11:10:41.301Z,0.50
2018-01-18T11:11:41.288Z,0.50
2018-01-18T11:12:20.259Z,0.30
2018-01-18T11:13:20.261Z,0.40
2018-01-18T11:14:20.252Z,0.50
2018-01-18T11:15:41.247Z,0.60
2018-01-18T11:16:41.239Z,0.40
2018-01-18T11:17:20.221Z,0.50
2018-01-18T11:18:20.225Z,0.60
2018-01-18T11:19:20.208Z,0.40
2018-01-18T11:20:41.214Z,0.30
2018-01-18T11:21:41.194Z,0.40
2018-01-18T11:22:20.200Z,0.50
2018-01-18T11:23:20.173Z,0.50
2018-01-18T11:24:20.160Z,0.50
2018-01-18T11:25:41.160Z,0.40
2018-01-18T11:26:41.147Z,0.40
2018-01-18T11:27:20.145Z,0.40
2018-01-18T11:28:20.128Z,0.40
2018-01-18T11:29:20.134Z,0.50
2018-01-18T11:30:41.113Z,0.40
2018-01-18T11:31:41.110Z,0.50
2018-01-18T11:32:20.093Z,0.90
2018-01-18T11:33:20.091Z,0.50
2018-01-18T11:34:20.076Z,0.50
2018-01-18T11:35:41.073Z,0.60
2018-01-18T11:36:41.061Z,0.50
2018-01-18T11:37:20.053Z,0.40
2018-01-18T11:38:20.101Z,0.30
2018-01-18T11:39:20.059Z,0.50
2018-01-18T11:40:41.032Z,0.30
2018-01-18T11:41:41.026Z,0.40
2018-01-18T11:42:20.007Z,0.60
2018-01-18T11:43:19.991Z,0.60
2018-01-18T11:44:19.996Z,0.50
2018-01-18T11:45:40.985Z,0.30
2018-01-18T11:46:40.980Z,0.30
2018-01-18T11:47:19.963Z,0.40
2018-01-18T11:48:19.962Z,0.40
2018-01-18T11:49:19.944Z,0.50
2018-01-18T11:50:40.952Z,0.40
2018-01-18T11:51:40.932Z,0.50
2018-01-18T11:52:19.935Z,0.40
2018-01-18T11:53:19.915Z,0.50
2018-01-18T11:54:19.922Z,0.50
2018-01-18T11:55:40.899Z,0.30
2018-01-18T11:56:40.887Z,0.50
2018-01-18T11:57:19.883Z,0.50
2018-01-18T11:58:19.872Z,0.30
2018-01-18T11:59:19.854Z,0.40
2018-01-18T12:00:40.851Z,0.60
2018-01-18T12:01:40.855Z,0.40
2018-01-18T12:02:19.838Z,0.40
2018-01-18T12:03:19.838Z,0.50
2018-01-18T12:04:19.807Z,0.40
2018-01-18T12:05:40.807Z,0.40
2018-01-18T12:06:40.824Z,0.40
2018-01-18T12:07:19.788Z,0.50
2018-01-18T12:08:19.780Z,0.30
2018-01-18T12:09:19.773Z,0.30
2018-01-18T12:10:40.765Z,0.40
2018-01-18T12:11:40.806Z,0.50
2018-01-18T12:12:19.753Z,0.40
2018-01-18T12:13:19.740Z,0.50
2018-01-18T12:14:19.732Z,0.40
2018-01-18T12:15:40.727Z,0.50
2018-01-18T12:16:40.715Z,0.30
2018-01-18T12:17:19.714Z,0.50
2018-01-18T12:18:19.709Z,0.40
2018-01-18T12:19:19.685Z,0.40
2018-01-18T12:20:40.689Z,0.30
2018-01-18T12:21:40.678Z,0.50
2018-01-18T12:22:19.661Z,0.30
2018-01-18T12:23:19.658Z,0.40
2018-01-18T12:24:19.662Z,0.40
2018-01-18T12:25:40.634Z,0.30
2018-01-18T12:26:40.634Z,0.40
2018-01-18T12:27:19.626Z,0.30
2018-01-18T12:28:19.610Z,0.50
2018-01-18T12:29:19.631Z,0.40
2018-01-18T12:30:40.628Z,0.40
2018-01-18T12:31:40.594Z,0.40
2018-01-18T12:32:19.614Z,0.40
2018-01-18T12:33:19.581Z,0.40
2018-01-18T12:34:19.563Z,0.40
2018-01-18T12:35:40.564Z,0.30
2018-01-18T12:36:40.559Z,0.50
2018-01-18T12:37:19.541Z,0.40
2018-01-18T12:38:19.540Z,0.30
2018-01-18T12:39:19.530Z,0.50
2018-01-18T12:40:40.555Z,0.40
2018-01-18T12:41:40.514Z,0.30
2018-01-18T12:42:19.508Z,0.40
2018-01-18T12:43:19.499Z,0.40
2018-01-18T12:44:19.484Z,0.40
2018-01-18T12:45:40.500Z,0.40
2018-01-18T12:46:40.490Z,0.50
2018-01-18T12:47:19.458Z,0.30
2018-01-18T12:48:19.466Z,0.40
2018-01-18T12:49:19.451Z,0.40
2018-01-18T12:50:40.448Z,0.40
2018-01-18T12:51:40.445Z,0.30
2018-01-18T12:52:19.429Z,0.40
2018-01-18T12:53:19.414Z,0.40
2018-01-18T12:54:19.409Z,0.40
2018-01-18T12:55:40.429Z,0.40
2018-01-18T12:56:40.397Z,0.40
2018-01-18T12:57:19.388Z,0.40
2018-01-18T12:58:19.384Z,0.30
2018-01-18T12:59:19.368Z,0.30
2018-01-18T13:00:40.410Z,0.40
2018-01-18T13:01:40.355Z,0.40
2018-01-18T13:02:19.370Z,0.50
2018-01-18T13:03:19.329Z,0.40
2018-01-18T13:04:19.330Z,0.30
2018-01-18T13:05:40.335Z,0.40
2018-01-18T13:06:40.321Z,0.50
2018-01-18T13:07:19.296Z,0.40
2018-01-18T13:08:19.295Z,0.30
2018-01-18T13:09:19.321Z,0.50
2018-01-18T13:10:40.303Z,0.50
2018-01-18T13:11:40.272Z,0.60
2018-01-18T13:12:19.265Z,0.30
2018-01-18T13:13:19.255Z,0.40
2018-01-18T13:14:19.252Z,0.50
2018-01-18T13:15:40.297Z,0.60
2018-01-18T13:16:40.254Z,0.30
2018-01-18T13:17:19.233Z,0.30
2018-01-18T13:18:19.215Z,0.20